Terminal Aerodrome Forecast
Issued by NWS

Home | Current Version | Previous Version | Text Only | Print | Product List | Glossary On
Versions: 1 2 3 4 5 6 7 8 9 10 11 12 13 14 15
000
FTUS43 KGLD 251722
TAFMCK
TAF
KMCK 251722Z 2518/2618 12010KT P6SM SKC
     FM260900 09005KT 3SM BR SCT002 OVC007
     FM261200 VRB03KT 1/2SM FG OVC002
     FM261400 33005KT 5SM BR BKN015
     FM261600 33010KT P6SM FEW030 SCT200=

USA.gov is the U.S. government's official web portal to all federal, state and local government web resources and services.